Time;durP1;ratioP1;P1;durP2;ratioP2;P2;SDS_P1;SDS_P2;PMS_P1;PMS_P2;Temp;Humidity;BMP_temperature;BMP_pressure;BME280_temperature;BME280_humidity;BME280_pressure;Samples;Min_cycle;Max_cycle;Signal;HPM_P1;HPM_P2
2022/04/19 11:32:30;;;;;;;4.65;3.83;;;;;;;;;;6157417;23;20361;-79
2022/04/19 11:35:03;;;;;;;3.75;3.33;;;;;;;;;;6217136;23;20016;-80
2022/04/19 11:37:30;;;;;;;4.57;4.10;;;;;;;;;;6216984;23;20305;-81
2022/04/19 15:59:37;;;;;;;12.77;9.32;;;;;;;;;;6215147;23;20025;-79
2022/04/19 16:02:03;;;;;;;7.70;6.25;;;;;;;;;;6216386;23;20004;-78
2022/04/19 16:04:28;;;;;;;9.27;6.40;;;;;;;;;;6216527;23;20000;-79
2022/04/19 16:06:54;;;;;;;9.68;7.97;;;;;;;;;;6216589;23;20001;-78
2022/04/19 16:09:19;;;;;;;10.75;8.13;;;;;;;;;;6216391;23;20000;-79
2022/04/19 16:11:45;;;;;;;10.07;8.40;;;;;;;;;;6216484;23;20008;-78
2022/04/19 16:14:11;;;;;;;18.38;15.57;;;;;;;;;;6216226;23;20040;-79
2022/04/19 16:24:48;;;;;;;8.13;5.63;;;;;;;;;;6216108;23;20018;-79
2022/04/19 16:27:14;;;;;;;7.93;5.32;;;;;;;;;;6216237;23;20013;-78
2022/04/19 16:29:40;;;;;;;6.75;6.05;;;;;;;;;;6216315;23;20387;-78
2022/04/19 16:32:06;;;;;;;8.27;6.45;;;;;;;;;;6216200;23;20012;-78
2022/04/19 16:34:31;;;;;;;6.03;5.22;;;;;;;;;;6216182;23;20055;-77
2022/04/19 16:36:57;;;;;;;20.60;13.23;;;;;;;;;;6216380;23;20419;-77
2022/04/19 16:39:22;;;;;;;22.33;15.18;;;;;;;;;;6216193;23;20095;-78
2022/04/19 16:41:48;;;;;;;13.20;11.90;;;;;;;;;;6216107;23;20004;-77
2022/04/19 16:44:13;;;;;;;21.88;19.75;;;;;;;;;;6215965;23;20005;-77
2022/04/19 16:46:38;;;;;;;13.77;12.35;;;;;;;;;;6216499;23;20324;-80
2022/04/19 16:49:06;;;;;;;9.35;8.45;;;;;;;;;;6216160;23;20004;-80
2022/04/19 16:51:32;;;;;;;10.13;8.98;;;;;;;;;;6216116;23;20000;-78
2022/04/19 16:53:57;;;;;;;12.30;11.02;;;;;;;;;;6189383;23;20331;-78
2022/04/19 16:56:23;;;;;;;7.80;6.53;;;;;;;;;;6215806;23;20005;-78
2022/04/19 16:58:48;;;;;;;9.23;5.72;;;;;;;;;;6215900;23;20055;-78
2022/04/19 17:01:13;;;;;;;7.28;5.45;;;;;;;;;;6215770;23;20011;-79
2022/04/19 17:06:28;;;;;;;12.35;10.82;;;;;;;;;;6216058;23;20019;-78
2022/04/19 17:08:55;;;;;;;8.30;6.90;;;;;;;;;;6215793;23;20001;-78
2022/04/19 17:11:21;;;;;;;25.73;13.63;;;;;;;;;;6215779;23;20005;-78
2022/04/19 17:13:47;;;;;;;23.13;11.68;;;;;;;;;;6216001;23;20432;-78
2022/04/19 17:16:12;;;;;;;24.58;12.80;;;;;;;;;;6216171;23;20064;-78
2022/04/19 17:18:38;;;;;;;14.98;9.32;;;;;;;;;;6216035;23;20000;-78
2022/04/19 17:21:03;;;;;;;19.27;12.77;;;;;;;;;;6189627;23;20027;-78
2022/04/19 17:23:29;;;;;;;23.90;14.30;;;;;;;;;;6215392;23;20012;-78
2022/04/19 17:25:54;;;;;;;20.25;11.52;;;;;;;;;;6215974;23;20001;-78
2022/04/19 17:28:20;;;;;;;9.50;8.30;;;;;;;;;;6215548;23;20005;-78
2022/04/19 17:30:47;;;;;;;8.57;7.22;;;;;;;;;;6216054;23;20001;-78
2022/04/19 17:33:13;;;;;;;7.13;6.15;;;;;;;;;;6215801;23;20001;-77
2022/04/19 17:35:39;;;;;;;6.60;5.90;;;;;;;;;;6215757;23;20047;-78
2022/04/19 17:38:05;;;;;;;8.27;5.85;;;;;;;;;;6188965;23;20059;-78
2022/04/19 17:40:30;;;;;;;9.05;6.45;;;;;;;;;;6216251;23;20005;-78
2022/04/19 17:42:57;;;;;;;8.02;6.78;;;;;;;;;;6215831;23;20367;-78
2022/04/19 17:45:22;;;;;;;8.00;6.60;;;;;;;;;;6215834;23;20007;-78
2022/04/19 17:47:48;;;;;;;10.77;7.25;;;;;;;;;;6216167;23;20005;-78
2022/04/19 17:58:25;;;;;;;8.02;7.20;;;;;;;;;;6215420;23;20078;-79
2022/04/19 18:00:50;;;;;;;8.52;7.63;;;;;;;;;;6215616;23;20047;-76
2022/04/19 18:03:16;;;;;;;9.02;7.60;;;;;;;;;;6215630;23;20000;-77
2022/04/19 18:05:41;;;;;;;9.50;7.97;;;;;;;;;;6215684;23;20482;-76
2022/04/19 18:08:07;;;;;;;8.10;6.50;;;;;;;;;;6215610;23;20008;-78
2022/04/19 18:10:33;;;;;;;8.82;6.47;;;;;;;;;;6189140;23;20004;-78
2022/04/19 18:12:59;;;;;;;9.65;7.25;;;;;;;;;;6215482;23;20088;-79
2022/04/19 18:15:25;;;;;;;10.60;6.88;;;;;;;;;;6215729;23;20039;-79
2022/04/19 18:17:52;;;;;;;7.47;6.20;;;;;;;;;;6215473;23;20001;-79
2022/04/19 18:20:18;;;;;;;7.78;6.15;;;;;;;;;;6215415;23;20087;-79
2022/04/19 18:25:27;;;;;;;9.43;7.20;;;;;;;;;;6217485;23;20015;-80
2022/04/19 18:27:56;;;;;;;10.23;7.60;;;;;;;;;;6217288;23;20056;-80
2022/04/19 18:30:23;;;;;;;9.38;7.03;;;;;;;;;;6190776;23;20310;-79
2022/04/19 18:32:49;;;;;;;11.95;8.60;;;;;;;;;;6217728;23;19996;-79
2022/04/19 18:35:15;;;;;;;9.70;7.50;;;;;;;;;;6217576;23;20009;-81
2022/04/19 18:37:41;;;;;;;9.52;7.70;;;;;;;;;;6217412;23;20096;-80
2022/04/19 18:40:07;;;;;;;9.13;7.53;;;;;;;;;;6217352;23;20032;-82
2022/04/19 18:42:32;;;;;;;8.90;7.20;;;;;;;;;;6217208;23;20071;-81
2022/04/19 18:44:58;;;;;;;8.90;7.60;;;;;;;;;;6217777;23;20298;-83
2022/04/19 18:47:24;;;;;;;7.38;6.30;;;;;;;;;;6217327;23;20000;-81
2022/04/19 18:49:49;;;;;;;8.27;6.75;;;;;;;;;;6217796;23;20005;-82
2022/04/19 18:52:15;;;;;;;10.15;7.20;;;;;;;;;;6217334;23;20028;-81
2022/04/19 18:54:40;;;;;;;9.30;6.43;;;;;;;;;;6217489;23;20001;-81
2022/04/19 18:57:06;;;;;;;10.60;8.27;;;;;;;;;;6217286;23;20012;-84
2022/04/19 18:59:32;;;;;;;10.10;8.95;;;;;;;;;;6190518;23;20111;-81
2022/04/19 19:01:58;;;;;;;10.27;8.93;;;;;;;;;;6216449;23;20016;-78
2022/04/19 19:04:24;;;;;;;9.30;7.63;;;;;;;;;;6217264;23;20004;-79
2022/04/19 19:06:50;;;;;;;7.35;6.13;;;;;;;;;;6217200;23;20004;-80
2022/04/19 19:09:16;;;;;;;9.68;6.03;;;;;;;;;;6217211;23;20093;-79
2022/04/19 19:11:43;;;;;;;10.23;7.72;;;;;;;;;;6217038;23;20325;-80
2022/04/19 19:14:09;;;;;;;10.77;8.00;;;;;;;;;;6217472;23;20005;-79
2022/04/19 19:16:36;;;;;;;9.05;7.68;;;;;;;;;;6216710;23;20472;-80
2022/04/19 19:19:02;;;;;;;8.30;7.25;;;;;;;;;;6216729;23;20008;-78
2022/04/19 19:21:28;;;;;;;9.75;7.30;;;;;;;;;;6190188;23;20414;-77
2022/04/19 19:23:56;;;;;;;9.10;6.93;;;;;;;;;;6189927;23;20043;-76
2022/04/19 19:26:30;;;;;;;9.95;7.00;;;;;;;;;;6216664;23;20000;-78
2022/04/19 19:28:58;;;;;;;8.48;7.05;;;;;;;;;;6217217;23;20016;-77
2022/04/19 19:31:24;;;;;;;8.07;6.65;;;;;;;;;;6216836;23;20004;-78
2022/04/19 19:33:50;;;;;;;9.77;7.78;;;;;;;;;;6189682;23;20134;-78
2022/04/19 19:36:16;;;;;;;13.00;7.00;;;;;;;;;;6216577;23;20000;-77
2022/04/19 19:38:41;;;;;;;10.48;6.97;;;;;;;;;;6216735;23;20009;-77
2022/04/19 19:41:07;;;;;;;9.63;7.05;;;;;;;;;;6216456;23;20395;-78
2022/04/19 19:43:32;;;;;;;9.35;7.03;;;;;;;;;;6216353;23;20103;-78
2022/04/19 19:45:58;;;;;;;9.50;6.65;;;;;;;;;;6216665;23;20009;-78
2022/04/19 19:48:23;;;;;;;9.63;7.60;;;;;;;;;;6216078;23;20076;-81
2022/04/19 19:50:49;;;;;;;8.02;6.70;;;;;;;;;;6189621;23;20332;-80
2022/04/19 19:53:14;;;;;;;8.63;7.32;;;;;;;;;;6216532;23;20063;-80
2022/04/19 19:55:39;;;;;;;10.20;7.20;;;;;;;;;;6212097;23;20004;-80
2022/04/19 19:58:05;;;;;;;9.32;7.15;;;;;;;;;;6216059;23;20017;-84
2022/04/19 20:00:31;;;;;;;8.63;6.60;;;;;;;;;;6214774;23;20009;-83
2022/04/19 20:02:56;;;;;;;6.88;5.80;;;;;;;;;;6215955;23;20424;-81
2022/04/19 20:05:22;;;;;;;7.60;5.88;;;;;;;;;;6216212;23;20081;-81
2022/04/19 20:07:47;;;;;;;7.60;5.70;;;;;;;;;;6216153;23;20007;-81
2022/04/19 20:10:13;;;;;;;8.23;6.22;;;;;;;;;;6216122;23;20046;-80
2022/04/19 20:12:38;;;;;;;9.95;6.63;;;;;;;;;;6216225;23;20104;-82
2022/04/19 20:15:04;;;;;;;7.95;6.53;;;;;;;;;;6216368;23;20000;-81
2022/04/19 20:17:30;;;;;;;9.38;6.60;;;;;;;;;;6216265;23;20067;-83
2022/04/19 20:19:55;;;;;;;8.23;6.35;;;;;;;;;;6216234;23;20083;-80
2022/04/19 20:22:21;;;;;;;10.45;5.97;;;;;;;;;;6216223;23;20001;-84
2022/04/19 20:24:46;;;;;;;8.43;6.90;;;;;;;;;;6215898;23;20075;-85
2022/04/19 20:27:12;;;;;;;10.68;7.93;;;;;;;;;;6189580;23;20012;-80
2022/04/19 20:29:37;;;;;;;10.32;6.88;;;;;;;;;;6216215;23;20075;-82
2022/04/19 20:32:03;;;;;;;8.35;7.18;;;;;;;;;;6216178;23;20039;-82
2022/04/19 20:34:28;;;;;;;9.23;7.38;;;;;;;;;;6216217;23;20000;-80
2022/04/19 20:36:54;;;;;;;9.68;7.22;;;;;;;;;;6216029;23;20309;-81
2022/04/19 20:39:19;;;;;;;9.30;7.00;;;;;;;;;;6216022;23;20005;-80
2022/04/19 20:41:45;;;;;;;10.15;7.13;;;;;;;;;;6189591;23;20435;-78
2022/04/19 20:44:13;;;;;;;9.25;7.05;;;;;;;;;;6216262;23;20371;-80
2022/04/19 20:52:07;;;;;;;8.32;6.28;;;;;;;;;;6216043;23;20015;-79
2022/04/19 20:54:33;;;;;;;8.70;7.25;;;;;;;;;;6212952;23;20008;-79
2022/04/19 20:57:04;;;;;;;10.75;8.07;;;;;;;;;;6215319;23;20032;-80
2022/04/19 20:59:34;;;;;;;11.30;8.25;;;;;;;;;;6188627;23;20064;-80
2022/04/19 21:02:00;;;;;;;8.95;7.47;;;;;;;;;;6215856;23;20071;-81
2022/04/19 21:04:26;;;;;;;8.07;6.53;;;;;;;;;;6188888;23;19996;-80
2022/04/19 21:06:51;;;;;;;9.93;6.53;;;;;;;;;;6215895;23;20000;-81
2022/04/19 21:09:17;;;;;;;8.45;7.00;;;;;;;;;;6215953;23;20301;-80
2022/04/19 21:11:42;;;;;;;9.75;7.32;;;;;;;;;;6215565;23;20412;-82
2022/04/19 21:14:08;;;;;;;9.50;6.97;;;;;;;;;;6215965;23;20071;-81
2022/04/19 21:16:34;;;;;;;8.68;7.63;;;;;;;;;;6215982;23;20020;-80
2022/04/19 21:19:02;;;;;;;8.35;6.90;;;;;;;;;;6188794;23;20013;-80
2022/04/19 21:21:30;;;;;;;10.35;7.65;;;;;;;;;;6215443;23;20008;-80
2022/04/19 21:23:55;;;;;;;7.55;6.07;;;;;;;;;;6215636;23;20071;-82
2022/04/19 21:26:21;;;;;;;8.85;6.75;;;;;;;;;;6186669;23;20008;-81
2022/04/19 21:28:47;;;;;;;7.18;6.45;;;;;;;;;;6215545;23;20328;-82
2022/04/19 21:31:12;;;;;;;8.07;6.55;;;;;;;;;;6214075;23;20008;-78
2022/04/19 21:33:38;;;;;;;9.38;7.45;;;;;;;;;;6215152;23;20324;-79
